Time;durP1;ratioP1;P1;durP2;ratioP2;P2;SDS_P1;SDS_P2;PMS_P1;PMS_P2;Temp;Humidity;BMP_temperature;BMP_pressure;BME280_temperature;BME280_humidity;BME280_pressure;Samples;Min_cycle;Max_cycle;Signal;HPM_P1;HPM_P2
2021/01/10 00:03:23;;;;;;;66.27;34.70;;;;;-0.50;102064.00;;;;10447509;28;20222;-78
2021/01/10 00:08:24;;;;;;;59.90;33.70;;;;;-0.50;102065.00;;;;10431918;28;20227;-78
2021/01/10 00:13:25;;;;;;;61.10;34.97;;;;;-0.40;102063.00;;;;10423402;28;20229;-78
2021/01/10 00:18:27;;;;;;;62.40;33.17;;;;;-0.40;102066.00;;;;10448540;28;20202;-78
2021/01/10 00:23:28;;;;;;;62.27;32.20;;;;;-0.30;102069.00;;;;10450347;28;20244;-77
2021/01/10 00:28:31;;;;;;;61.77;34.53;;;;;-0.30;102068.00;;;;10432917;28;20222;-77
2021/01/10 00:33:33;;;;;;;64.20;35.47;;;;;-0.20;102061.00;;;;10432345;28;20561;-78
2021/01/10 00:38:35;;;;;;;63.03;33.90;;;;;-0.20;102060.00;;;;10449137;28;20218;-78
2021/01/10 00:43:36;;;;;;;60.47;32.87;;;;;-0.20;102055.00;;;;10454570;28;20214;-78
2021/01/10 00:48:38;;;;;;;65.50;33.03;;;;;-0.10;102050.00;;;;10432280;28;20193;-78
2021/01/10 00:53:41;;;;;;;66.87;34.17;;;;;-0.10;102050.00;;;;10432707;28;20269;-78
2021/01/10 00:58:43;;;;;;;64.83;33.60;;;;;-0.10;102051.00;;;;10433249;28;20200;-78
2021/01/10 01:03:47;;;;;;;60.80;32.63;;;;;-0.10;102067.00;;;;10417798;28;20229;-78
2021/01/10 01:08:49;;;;;;;52.83;31.73;;;;;-0.10;102061.00;;;;10433702;28;20229;-78
2021/01/10 01:13:50;;;;;;;55.47;32.03;;;;;-0.10;102054.00;;;;10438382;28;20199;-77
2021/01/10 01:18:52;;;;;;;52.00;28.50;;;;;-0.20;102062.00;;;;10392307;28;20263;-77
2021/01/10 01:23:53;;;;;;;51.80;31.23;;;;;-0.20;102065.00;;;;10408538;28;20674;-77
2021/01/10 01:28:54;;;;;;;56.77;31.90;;;;;-0.10;102065.00;;;;10391962;28;20191;-78
2021/01/10 01:33:56;;;;;;;56.87;31.90;;;;;-0.10;102052.00;;;;10391688;28;20782;-78
2021/01/10 01:38:59;;;;;;;51.70;30.53;;;;;-0.20;102056.00;;;;10408558;28;20531;-78
2021/01/10 01:44:03;;;;;;;51.10;31.43;;;;;-0.40;102049.00;;;;10422252;28;20273;-78
2021/01/10 01:49:07;;;;;;;48.27;29.67;;;;;-0.40;102047.00;;;;10448145;28;20676;-78
2021/01/10 01:54:09;;;;;;;48.83;28.43;;;;;-0.30;102055.00;;;;10465830;28;20186;-78
2021/01/10 01:59:13;;;;;;;46.77;29.50;;;;;-0.30;102044.00;;;;10447154;28;20200;-78
2021/01/10 02:04:44;;;;;;;54.77;30.90;;;;;-0.30;102046.00;;;;10430565;28;20213;-78
2021/01/10 02:09:51;;;;;;;56.37;31.03;;;;;-0.30;102043.00;;;;10438419;28;20248;-78
2021/01/10 02:15:20;;;;;;;47.80;29.30;;;;;-0.30;102044.00;;;;10428668;28;20195;-78
2021/01/10 02:20:28;;;;;;;47.53;29.30;;;;;-0.40;102038.00;;;;10445177;28;20237;-78
2021/01/10 02:25:30;;;;;;;49.97;29.57;;;;;-0.50;102033.00;;;;10445835;28;20249;-77
2021/01/10 02:30:33;;;;;;;45.03;27.50;;;;;-0.60;102026.00;;;;10430161;28;20202;-78
2021/01/10 02:35:38;;;;;;;49.17;28.60;;;;;-0.70;102028.00;;;;10446230;28;20194;-78
2021/01/10 02:40:50;;;;;;;48.53;29.00;;;;;-0.70;102026.00;;;;10455750;28;20218;-78
2021/01/10 02:45:55;;;;;;;54.43;29.60;;;;;-0.60;102026.00;;;;10390940;28;20285;-78
2021/01/10 02:50:57;;;;;;;48.77;29.60;;;;;-0.60;102025.00;;;;10387631;28;20635;-78
2021/01/10 02:55:58;;;;;;;49.37;30.13;;;;;-0.50;102023.00;;;;10444147;28;20237;-78
2021/01/10 03:01:02;;;;;;;53.10;29.70;;;;;-0.40;102018.00;;;;10428970;28;20206;-78
2021/01/10 03:06:05;;;;;;;51.37;29.00;;;;;-0.30;102020.00;;;;10462073;28;20542;-78
2021/01/10 03:11:06;;;;;;;54.63;30.90;;;;;-0.20;102008.00;;;;10419784;28;20187;-78
2021/01/10 03:16:08;;;;;;;54.67;29.70;;;;;-0.20;102002.00;;;;10421820;28;20233;-77
2021/01/10 03:21:11;;;;;;;51.73;30.60;;;;;-0.10;102004.00;;;;10388961;28;20199;-78
2021/01/10 03:26:12;;;;;;;53.83;30.57;;;;;-0.10;101994.00;;;;10405388;28;20214;-78
2021/01/10 03:31:14;;;;;;;47.53;29.13;;;;;-0.10;101993.00;;;;10406416;28;20993;-78
2021/01/10 03:36:16;;;;;;;54.50;30.57;;;;;0.00;102004.00;;;;10410683;28;20649;-78
2021/01/10 03:41:17;;;;;;;51.57;30.00;;;;;0.00;101999.00;;;;10428420;28;20258;-78
2021/01/10 03:46:18;;;;;;;47.97;29.13;;;;;0.00;101995.00;;;;10456659;28;20222;-78
2021/01/10 03:51:26;;;;;;;53.23;30.40;;;;;0.10;101994.00;;;;10413465;28;20245;-78
2021/01/10 03:56:28;;;;;;;47.67;30.20;;;;;0.10;101993.00;;;;10398793;28;20241;-78
2021/01/10 04:01:29;;;;;;;53.97;30.13;;;;;0.10;101993.00;;;;10399845;28;20205;-78
2021/01/10 04:06:31;;;;;;;50.33;29.97;;;;;0.10;101996.00;;;;10399519;28;20249;-79
2021/01/10 04:11:32;;;;;;;47.83;30.63;;;;;0.10;101989.00;;;;10414135;28;20194;-77
2021/01/10 04:16:34;;;;;;;47.03;27.47;;;;;0.10;101992.00;;;;10457426;28;20237;-78
2021/01/10 04:21:36;;;;;;;49.50;27.63;;;;;0.10;101988.00;;;;10456618;28;20626;-78
2021/01/10 04:26:47;;;;;;;48.03;30.40;;;;;0.00;101987.00;;;;10455241;28;20214;-78
2021/01/10 04:31:50;;;;;;;43.07;27.13;;;;;-0.10;101997.00;;;;10471613;28;20201;-78
2021/01/10 04:36:51;;;;;;;45.67;26.77;;;;;-0.20;101989.00;;;;10454923;28;20249;-78
2021/01/10 04:41:53;;;;;;;48.07;28.43;;;;;-0.20;101985.00;;;;10419497;28;20202;-78
2021/01/10 04:46:55;;;;;;;53.10;28.10;;;;;-0.10;101992.00;;;;10410557;28;20234;-78
2021/01/10 04:52:04;;;;;;;47.07;27.53;;;;;-0.10;101987.00;;;;10395675;28;20685;-78
2021/01/10 04:57:10;;;;;;;48.00;28.00;;;;;-0.10;101982.00;;;;10411945;28;20190;-78
2021/01/10 05:02:13;;;;;;;49.30;27.57;;;;;0.00;101988.00;;;;10411762;28;20245;-78
2021/01/10 05:07:14;;;;;;;53.87;29.67;;;;;0.00;101988.00;;;;10396266;28;20221;-78
2021/01/10 05:12:16;;;;;;;58.27;31.53;;;;;0.00;101986.00;;;;10380424;28;20249;-78
2021/01/10 05:17:21;;;;;;;51.50;32.43;;;;;0.10;101983.00;;;;10451268;28;20648;-78
2021/01/10 05:22:23;;;;;;;52.63;30.83;;;;;0.10;101978.00;;;;10454075;28;20296;-79
2021/01/10 05:27:37;;;;;;;48.50;30.53;;;;;0.10;101982.00;;;;10420213;28;20221;-78
2021/01/10 05:32:38;;;;;;;54.93;31.73;;;;;0.10;101985.00;;;;10454448;28;20195;-77
2021/01/10 05:37:53;;;;;;;56.43;30.53;;;;;0.20;101988.00;;;;10453900;28;20190;-78
2021/01/10 05:42:56;;;;;;;43.87;28.30;;;;;0.20;101976.00;;;;10437600;28;20233;-78
2021/01/10 05:48:08;;;;;;;48.13;29.33;;;;;0.20;101968.00;;;;10437827;28;20198;-78
2021/01/10 05:53:16;;;;;;;54.40;29.20;;;;;0.20;101979.00;;;;10454505;28;20209;-78
2021/01/10 05:58:17;;;;;;;48.93;30.97;;;;;0.20;101966.00;;;;10453731;28;20198;-78
2021/01/10 06:03:24;;;;;;;45.10;27.87;;;;;0.30;101962.00;;;;10453768;28;20221;-78
2021/01/10 06:08:36;;;;;;;44.20;27.67;;;;;0.20;101959.00;;;;10437756;28;20195;-78
2021/01/10 06:13:46;;;;;;;48.60;29.10;;;;;0.30;101967.00;;;;10418574;28;20709;-78
2021/01/10 06:18:52;;;;;;;50.00;29.17;;;;;0.30;101962.00;;;;10396046;28;20195;-78
2021/01/10 06:23:58;;;;;;;53.47;28.83;;;;;0.30;101968.00;;;;10380996;28;20214;-78
2021/01/10 06:29:05;;;;;;;48.80;28.87;;;;;0.30;101957.00;;;;10431821;28;20199;-78
2021/01/10 06:34:09;;;;;;;48.10;27.17;;;;;0.40;101966.00;;;;10395849;28;20222;-78
2021/01/10 06:39:12;;;;;;;51.83;28.87;;;;;0.40;101966.00;;;;10396959;28;20659;-79
2021/01/10 06:44:16;;;;;;;53.13;29.90;;;;;0.40;101965.00;;;;10408848;28;20218;-78
2021/01/10 06:49:18;;;;;;;55.03;29.60;;;;;0.40;101967.00;;;;10436902;28;20256;-79
2021/01/10 06:54:19;;;;;;;53.00;29.77;;;;;0.40;101960.00;;;;10452630;28;20565;-78
2021/01/10 06:59:22;;;;;;;57.40;36.50;;;;;0.40;101975.00;;;;10451763;28;20210;-78
2021/01/10 07:04:54;;;;;;;51.23;32.93;;;;;0.40;101972.00;;;;10435403;28;20207;-79
2021/01/10 07:09:55;;;;;;;42.53;26.13;;;;;0.40;101970.00;;;;10418839;28;20233;-78
2021/01/10 07:15:18;;;;;;;46.30;28.13;;;;;0.40;101970.00;;;;10439786;28;20278;-78
2021/01/10 07:20:34;;;;;;;46.50;27.67;;;;;0.30;101975.00;;;;10401573;28;20277;-78
2021/01/10 07:25:37;;;;;;;47.50;27.03;;;;;0.20;101969.00;;;;10418508;28;20212;-78
2021/01/10 07:30:39;;;;;;;48.23;28.60;;;;;0.10;101968.00;;;;10412785;28;20198;-78
2021/01/10 07:35:58;;;;;;;47.57;27.53;;;;;-0.10;101970.00;;;;10441097;28;20186;-78
2021/01/10 07:41:38;;;;;;;48.97;28.57;;;;;-0.20;101980.00;;;;10441135;28;20190;-78
2021/01/10 07:47:02;;;;;;;46.77;26.50;;;;;-0.20;101977.00;;;;10352670;28;20215;-78
2021/01/10 07:52:04;;;;;;;48.27;29.10;;;;;-0.30;101978.00;;;;10408037;28;20190;-78
2021/01/10 07:57:24;;;;;;;44.20;25.87;;;;;-0.30;101971.00;;;;10398108;28;20646;-78
2021/01/10 08:02:57;;;;;;;44.37;26.43;;;;;-0.30;101976.00;;;;10426743;28;20698;-78
2021/01/10 08:08:14;;;;;;;42.50;24.17;;;;;-0.30;101980.00;;;;10430202;28;20289;-77
2021/01/10 08:13:38;;;;;;;37.43;24.33;;;;;-0.30;101980.00;;;;10429278;28;20552;-78
2021/01/10 08:18:41;;;;;;;44.47;26.80;;;;;-0.30;101993.00;;;;10399218;28;20298;-78
2021/01/10 08:23:44;;;;;;;42.10;26.53;;;;;-0.20;101993.00;;;;10377359;28;20214;-78
2021/01/10 08:28:48;;;;;;;42.13;26.20;;;;;-0.20;101986.00;;;;10410161;28;20298;-78
2021/01/10 08:34:03;;;;;;;41.97;27.30;;;;;-0.10;101987.00;;;;10376706;28;20242;-78
2021/01/10 08:39:09;;;;;;;46.27;28.97;;;;;0.00;101990.00;;;;10377495;28;20206;-78
2021/01/10 08:44:13;;;;;;;60.03;36.77;;;;;0.00;101991.00;;;;10393898;28;20697;-78
2021/01/10 08:49:16;;;;;;;45.20;27.33;;;;;0.10;101995.00;;;;10409461;28;20195;-78
2021/01/10 08:54:20;;;;;;;44.63;26.83;;;;;0.10;101999.00;;;;10394164;28;20195;-78
2021/01/10 08:59:22;;;;;;;41.77;28.20;;;;;0.10;102002.00;;;;10393007;28;20210;-78
2021/01/10 09:04:23;;;;;;;46.23;28.67;;;;;0.10;102004.00;;;;10418766;28;20203;-78
2021/01/10 09:09:30;;;;;;;51.73;33.63;;;;;0.10;102011.00;;;;10407097;28;20197;-77
2021/01/10 09:14:53;;;;;;;43.83;27.10;;;;;0.10;102008.00;;;;10450241;28;20190;-78
2021/01/10 09:20:03;;;;;;;46.13;29.13;;;;;0.10;102012.00;;;;10443379;28;20210;-77
2021/01/10 09:25:12;;;;;;;47.37;29.73;;;;;0.10;102016.00;;;;10448722;28;20245;-77
2021/01/10 09:30:14;;;;;;;46.33;28.60;;;;;0.10;102022.00;;;;10444422;28;20183;-77
2021/01/10 09:35:16;;;;;;;52.73;27.00;;;;;0.20;102016.00;;;;10425340;28;20225;-77
2021/01/10 09:40:18;;;;;;;44.60;27.73;;;;;0.10;102019.00;;;;10424838;28;20566;-78
2021/01/10 09:45:32;;;;;;;41.97;27.70;;;;;0.20;102023.00;;;;10414985;28;20222;-78
2021/01/10 09:50:34;;;;;;;47.37;27.07;;;;;0.20;102019.00;;;;10433149;28;20565;-78
2021/01/10 09:55:44;;;;;;;44.03;28.43;;;;;0.20;102025.00;;;;10449191;28;20222;-78
2021/01/10 10:00:56;;;;;;;45.17;29.07;;;;;0.20;102031.00;;;;10448939;28;20666;-78
2021/01/10 10:05:58;;;;;;;46.40;31.17;;;;;0.30;102025.00;;;;10449616;28;20210;-78
2021/01/10 10:10:59;;;;;;;48.23;32.13;;;;;0.40;102031.00;;;;10466406;28;20191;-78
2021/01/10 10:16:03;;;;;;;50.70;31.83;;;;;0.40;102041.00;;;;10420208;28;20206;-77
2021/01/10 10:21:04;;;;;;;48.03;31.00;;;;;0.40;102033.00;;;;10375706;28;20194;-78
2021/01/10 10:26:06;;;;;;;46.93;30.60;;;;;0.40;102025.00;;;;10392635;28;20214;-78
2021/01/10 10:31:08;;;;;;;46.30;30.53;;;;;0.40;102017.00;;;;10409480;28;20645;-78
2021/01/10 10:36:09;;;;;;;60.93;33.83;;;;;0.60;102017.00;;;;10408774;28;20229;-77
2021/01/10 10:41:10;;;;;;;70.63;40.67;;;;;1.10;102007.00;;;;10408812;28;20602;-78
2021/01/10 10:46:12;;;;;;;72.77;43.97;;;;;2.00;102011.00;;;;10396297;28;20724;-78
2021/01/10 10:51:13;;;;;;;65.90;43.30;;;;;2.90;102007.00;;;;10421164;28;20290;-78
2021/01/10 10:56:14;;;;;;;42.03;28.67;;;;;2.50;102006.00;;;;10390529;28;20199;-78
2021/01/10 11:01:16;;;;;;;40.83;26.83;;;;;2.00;101998.00;;;;10380314;28;20289;-79
2021/01/10 11:06:26;;;;;;;37.83;25.37;;;;;2.00;101991.00;;;;10404576;28;20682;-79
2021/01/10 11:11:37;;;;;;;38.73;26.77;;;;;2.50;101986.00;;;;10420107;28;20230;-78
2021/01/10 11:16:46;;;;;;;43.00;28.40;;;;;3.40;101986.00;;;;10397130;28;20562;-79
2021/01/10 11:21:49;;;;;;;33.63;25.57;;;;;3.90;101984.00;;;;10406743;28;20205;-78
2021/01/10 11:26:51;;;;;;;27.53;21.90;;;;;4.40;101971.00;;;;10433411;28;20589;-79
2021/01/10 11:31:53;;;;;;;28.23;20.93;;;;;4.70;101973.00;;;;10430030;28;20202;-78
2021/01/10 11:36:55;;;;;;;23.10;19.03;;;;;5.00;101969.00;;;;10463677;28;20196;-79
2021/01/10 11:41:57;;;;;;;25.30;19.40;;;;;5.30;101962.00;;;;10425077;28;20201;-79
2021/01/10 11:47:02;;;;;;;32.57;21.87;;;;;5.60;101954.00;;;;10450672;28;20218;-79
2021/01/10 11:52:04;;;;;;;37.47;23.83;;;;;5.80;101951.00;;;;10463135;28;20228;-79
2021/01/10 11:57:05;;;;;;;23.03;17.27;;;;;6.00;101950.00;;;;10444496;28;20272;-79
2021/01/10 12:02:07;;;;;;;33.93;19.00;;;;;6.30;101948.00;;;;10443556;28;20251;-79
2021/01/10 12:07:08;;;;;;;22.47;16.10;;;;;6.40;101939.00;;;;10428132;28;20207;-78
2021/01/10 12:12:09;;;;;;;28.50;17.63;;;;;6.60;101945.00;;;;10402514;28;20207;-78
2021/01/10 12:17:11;;;;;;;20.93;14.67;;;;;6.80;101933.00;;;;10421993;28;20203;-79
2021/01/10 12:22:13;;;;;;;23.07;17.20;;;;;6.90;101932.00;;;;10441952;28;20202;-78
2021/01/10 12:27:14;;;;;;;17.77;12.53;;;;;7.10;101931.00;;;;10444486;28;20210;-78
2021/01/10 12:32:16;;;;;;;15.47;10.67;;;;;7.10;101938.00;;;;10434937;28;20484;-78
2021/01/10 12:37:18;;;;;;;18.27;12.80;;;;;7.10;101927.00;;;;10415335;28;20190;-79
2021/01/10 12:42:19;;;;;;;15.03;11.17;;;;;7.10;101926.00;;;;10400480;28;20186;-79
2021/01/10 12:47:21;;;;;;;15.50;10.17;;;;;7.10;101922.00;;;;10416845;28;20214;-78
2021/01/10 12:52:22;;;;;;;19.50;12.60;;;;;7.00;101920.00;;;;10384334;28;20197;-78
2021/01/10 12:57:25;;;;;;;14.20;9.50;;;;;7.00;101907.00;;;;10402429;28;20198;-79
2021/01/10 13:02:26;;;;;;;14.07;10.03;;;;;6.90;101901.00;;;;10458401;28;20541;-79
2021/01/10 13:07:28;;;;;;;22.03;14.33;;;;;7.00;101891.00;;;;10423427;28;20242;-78
2021/01/10 13:12:31;;;;;;;17.83;12.13;;;;;7.20;101882.00;;;;10424914;28;20243;-79
2021/01/10 13:17:32;;;;;;;18.73;12.87;;;;;7.60;101889.00;;;;10416621;28;20195;-79
2021/01/10 13:22:34;;;;;;;21.47;15.97;;;;;7.90;101893.00;;;;10383411;28;20203;-78
2021/01/10 13:27:35;;;;;;;22.80;14.27;;;;;7.80;101907.00;;;;10381907;28;20274;-78
2021/01/10 13:32:37;;;;;;;18.53;13.40;;;;;7.30;101918.00;;;;10397871;28;20293;-78
2021/01/10 13:37:40;;;;;;;15.73;11.00;;;;;6.70;101899.00;;;;10433970;28;20190;-78
2021/01/10 13:42:41;;;;;;;13.23;10.03;;;;;6.30;101899.00;;;;10448876;28;20233;-78
2021/01/10 13:47:42;;;;;;;17.30;11.83;;;;;6.40;101903.00;;;;10399668;28;20626;-79
2021/01/10 13:52:45;;;;;;;21.00;12.90;;;;;6.60;101901.00;;;;10415998;28;20207;-78
2021/01/10 13:57:48;;;;;;;22.37;12.13;;;;;6.50;101909.00;;;;10423966;28;20195;-78
2021/01/10 14:02:50;;;;;;;14.73;10.73;;;;;6.20;101925.00;;;;10416392;28;20303;-79
2021/01/10 14:07:53;;;;;;;19.13;11.60;;;;;5.90;101921.00;;;;10423320;28;20214;-78
2021/01/10 14:12:54;;;;;;;16.67;11.60;;;;;5.70;101928.00;;;;10455216;28;20201;-78
2021/01/10 14:17:56;;;;;;;21.00;13.17;;;;;5.20;101926.00;;;;10437701;28;20629;-78
2021/01/10 14:22:57;;;;;;;18.20;14.27;;;;;4.90;101928.00;;;;10421593;28;20204;-78
2021/01/10 14:27:58;;;;;;;19.67;15.23;;;;;4.60;101913.00;;;;10455727;28;20218;-78
2021/01/10 14:33:03;;;;;;;22.37;16.50;;;;;4.40;101920.00;;;;10421580;28;20194;-78
2021/01/10 14:38:04;;;;;;;23.00;16.67;;;;;4.20;101930.00;;;;10422837;28;20254;-78
2021/01/10 14:43:07;;;;;;;21.03;15.80;;;;;4.10;101920.00;;;;10471661;28;20275;-78
2021/01/10 14:48:08;;;;;;;20.77;16.10;;;;;3.90;101932.00;;;;10456375;28;20549;-79
2021/01/10 14:53:10;;;;;;;24.03;15.67;;;;;3.80;101933.00;;;;10439289;28;20190;-78
2021/01/10 14:58:11;;;;;;;19.97;14.53;;;;;3.70;101935.00;;;;10425596;28;20256;-78
2021/01/10 15:03:12;;;;;;;24.13;16.17;;;;;3.60;101929.00;;;;10414287;28;20194;-79
2021/01/10 15:08:14;;;;;;;24.50;18.10;;;;;3.50;101931.00;;;;10448783;28;20217;-79
2021/01/10 15:13:15;;;;;;;23.17;17.50;;;;;3.30;101933.00;;;;10454772;28;20201;-79
2021/01/10 15:18:17;;;;;;;23.87;16.70;;;;;3.20;101934.00;;;;10437855;28;20205;-78
2021/01/10 15:23:19;;;;;;;21.37;16.47;;;;;3.00;101946.00;;;;10454725;28;20634;-78
2021/01/10 15:28:20;;;;;;;23.40;18.03;;;;;2.80;101946.00;;;;10449349;28;20692;-78
2021/01/10 15:33:22;;;;;;;24.07;18.23;;;;;2.70;101949.00;;;;10442612;28;20194;-78
2021/01/10 15:38:24;;;;;;;29.57;20.10;;;;;2.50;101942.00;;;;10445669;28;20561;-78
2021/01/10 15:43:26;;;;;;;29.90;20.33;;;;;2.30;101952.00;;;;10458458;28;20225;-78
2021/01/10 15:48:27;;;;;;;31.83;21.53;;;;;2.10;101946.00;;;;10446183;28;20214;-78
2021/01/10 15:53:28;;;;;;;33.07;23.00;;;;;2.00;101953.00;;;;10462222;28;20194;-78
2021/01/10 15:58:30;;;;;;;33.27;23.53;;;;;1.80;101950.00;;;;10412087;28;20218;-78
2021/01/10 16:03:31;;;;;;;34.47;23.13;;;;;1.60;101949.00;;;;10402992;28;20218;-78
2021/01/10 16:08:34;;;;;;;31.10;22.27;;;;;1.50;101945.00;;;;10426012;28;20194;-78
2021/01/10 16:13:38;;;;;;;32.20;23.30;;;;;1.30;101948.00;;;;10444199;28;20202;-78
2021/01/10 16:18:40;;;;;;;36.73;23.80;;;;;1.20;101956.00;;;;10427177;28;20217;-79
2021/01/10 16:23:42;;;;;;;36.53;24.43;;;;;1.00;101953.00;;;;10443320;28;20217;-78
2021/01/10 16:28:46;;;;;;;38.33;24.77;;;;;0.90;101954.00;;;;10443352;28;20194;-79
2021/01/10 16:33:47;;;;;;;47.43;30.83;;;;;0.80;101953.00;;;;10443249;28;20201;-78
2021/01/10 16:38:48;;;;;;;50.23;31.20;;;;;0.80;101946.00;;;;10442603;28;20194;-78
2021/01/10 16:44:04;;;;;;;51.47;30.93;;;;;0.70;101950.00;;;;10457236;28;20299;-79
2021/01/10 16:49:08;;;;;;;51.10;31.33;;;;;0.60;101948.00;;;;10458109;28;20194;-78
2021/01/10 16:54:16;;;;;;;51.90;32.90;;;;;0.50;101958.00;;;;10457678;28;20534;-78
2021/01/10 16:59:20;;;;;;;52.73;35.13;;;;;0.40;101947.00;;;;10449013;28;20627;-78
2021/01/10 17:04:22;;;;;;;59.50;35.20;;;;;0.30;101947.00;;;;10437878;28;20202;-78
2021/01/10 17:09:23;;;;;;;54.10;32.80;;;;;0.20;101933.00;;;;10429530;28;20576;-78
2021/01/10 17:14:25;;;;;;;66.33;37.17;;;;;0.20;101935.00;;;;10439762;28;20194;-78
2021/01/10 17:19:26;;;;;;;63.37;36.40;;;;;0.10;101939.00;;;;10420677;28;20205;-78
2021/01/10 17:24:28;;;;;;;67.40;36.57;;;;;0.00;101925.00;;;;10435413;28;20297;-78
2021/01/10 17:29:29;;;;;;;64.63;36.40;;;;;-0.10;101921.00;;;;10439105;28;20526;-78
2021/01/10 17:34:32;;;;;;;70.13;37.90;;;;;-0.20;101932.00;;;;10427083;28;20213;-79
2021/01/10 17:39:33;;;;;;;59.50;36.53;;;;;-0.20;101923.00;;;;10408169;28;20202;-78
2021/01/10 17:44:35;;;;;;;69.43;37.53;;;;;-0.20;101939.00;;;;10441926;28;20626;-78
2021/01/10 17:49:37;;;;;;;68.00;36.90;;;;;-0.20;101946.00;;;;10418729;28;20278;-78
2021/01/10 17:54:38;;;;;;;75.53;41.27;;;;;-0.20;101937.00;;;;10425467;28;20186;-78
2021/01/10 17:59:39;;;;;;;111.73;50.53;;;;;-0.20;101927.00;;;;10403924;28;20253;-78
2021/01/10 18:04:41;;;;;;;89.00;44.23;;;;;-0.20;101931.00;;;;10441606;28;20214;-78
2021/01/10 18:09:43;;;;;;;107.93;51.70;;;;;-0.30;101942.00;;;;10420033;28;20631;-78
2021/01/10 18:14:44;;;;;;;134.87;61.67;;;;;-0.10;101934.00;;;;10419384;28;20183;-78
2021/01/10 18:19:45;;;;;;;141.13;71.43;;;;;0.00;101948.00;;;;10425256;28;20301;-78
2021/01/10 18:24:47;;;;;;;104.13;51.47;;;;;0.10;101958.00;;;;10395650;28;20269;-78
2021/01/10 18:29:48;;;;;;;95.43;47.50;;;;;0.20;101956.00;;;;10439340;28;20240;-78
2021/01/10 18:34:49;;;;;;;91.53;44.70;;;;;0.20;101959.00;;;;10427076;28;20538;-77
2021/01/10 18:39:51;;;;;;;103.67;45.90;;;;;0.20;101953.00;;;;10404516;28;20275;-78
2021/01/10 18:44:53;;;;;;;96.40;43.53;;;;;0.10;101950.00;;;;10458531;28;20701;-78
2021/01/10 18:49:54;;;;;;;106.57;50.50;;;;;0.10;101955.00;;;;10433394;28;20312;-78
2021/01/10 18:54:56;;;;;;;89.20;46.43;;;;;0.10;101948.00;;;;10411599;28;20190;-78
2021/01/10 18:59:57;;;;;;;99.47;42.47;;;;;0.10;101938.00;;;;10425307;28;20207;-78
2021/01/10 19:04:59;;;;;;;106.07;42.87;;;;;0.00;101942.00;;;;10381298;28;20677;-78
2021/01/10 19:10:05;;;;;;;96.77;50.47;;;;;-0.10;101953.00;;;;10408060;28;20566;-78
2021/01/10 19:15:07;;;;;;;83.80;44.20;;;;;-0.10;101955.00;;;;10427906;28;20186;-78
2021/01/10 19:20:10;;;;;;;121.43;57.87;;;;;-0.20;101952.00;;;;10399917;28;20187;-78
2021/01/10 19:25:12;;;;;;;102.83;55.03;;;;;-0.20;101962.00;;;;10436657;28;20211;-78
2021/01/10 19:30:14;;;;;;;92.00;46.00;;;;;-0.20;101968.00;;;;10428035;28;20199;-78
2021/01/10 19:35:16;;;;;;;87.90;44.53;;;;;-0.30;101969.00;;;;10450604;28;20183;-78
2021/01/10 19:40:17;;;;;;;99.67;50.93;;;;;-0.30;101956.00;;;;10399532;28;20332;-78
2021/01/10 19:45:19;;;;;;;97.63;49.50;;;;;-0.40;101955.00;;;;10391890;28;20219;-78
2021/01/10 19:50:20;;;;;;;99.67;47.47;;;;;-0.30;101961.00;;;;10414566;28;20205;-78
2021/01/10 19:55:22;;;;;;;89.20;46.20;;;;;-0.30;101962.00;;;;10437018;28;20194;-78
2021/01/10 20:00:23;;;;;;;92.40;47.27;;;;;-0.30;101965.00;;;;10426508;28;20214;-78
2021/01/10 20:05:24;;;;;;;80.50;42.40;;;;;-0.30;101960.00;;;;10426296;28;20575;-78
2021/01/10 20:10:26;;;;;;;96.40;46.57;;;;;-0.30;101952.00;;;;10424979;28;20260;-78
2021/01/10 20:15:27;;;;;;;86.03;47.03;;;;;-0.30;101953.00;;;;10471671;28;20253;-78
2021/01/10 20:20:28;;;;;;;84.63;45.00;;;;;-0.30;101955.00;;;;10456690;28;21183;-78
2021/01/10 20:25:30;;;;;;;87.03;47.30;;;;;-0.20;101951.00;;;;10441209;28;20205;-78
2021/01/10 20:30:31;;;;;;;90.93;44.60;;;;;-0.30;101942.00;;;;10457169;28;20194;-78
2021/01/10 20:35:32;;;;;;;83.20;41.77;;;;;-0.30;101943.00;;;;10474465;28;20185;-78
2021/01/10 20:40:34;;;;;;;91.57;43.57;;;;;-0.30;101934.00;;;;10459132;28;20201;-78
2021/01/10 20:45:37;;;;;;;81.50;43.77;;;;;-0.40;101942.00;;;;10477495;28;20206;-78
2021/01/10 20:50:59;;;;;;;82.20;41.00;;;;;-0.50;101939.00;;;;10451583;28;20209;-78
2021/01/10 20:56:10;;;;;;;87.27;43.30;;;;;-0.40;101925.00;;;;10436935;28;20187;-78
2021/01/10 21:01:12;;;;;;;75.50;39.27;;;;;-0.40;101923.00;;;;10448315;28;20681;-78
2021/01/10 21:06:14;;;;;;;87.87;42.53;;;;;-0.30;101930.00;;;;10467206;28;20213;-78
2021/01/10 21:11:20;;;;;;;81.03;42.67;;;;;-0.30;101941.00;;;;10444612;28;20182;-78
2021/01/10 21:16:42;;;;;;;80.90;41.90;;;;;-0.20;101947.00;;;;10429261;28;20186;-78
2021/01/10 21:21:48;;;;;;;86.70;43.20;;;;;-0.20;101939.00;;;;10443789;28;20205;-78
2021/01/10 21:26:58;;;;;;;85.23;43.67;;;;;-0.10;101943.00;;;;10411856;28;20206;-77
2021/01/10 21:32:02;;;;;;;88.27;46.20;;;;;-0.10;101942.00;;;;10409364;28;20246;-78
2021/01/10 21:37:04;;;;;;;86.13;45.50;;;;;0.00;101936.00;;;;10434910;28;20251;-78
2021/01/10 21:42:05;;;;;;;86.97;42.57;;;;;0.00;101932.00;;;;10447193;28;20194;-77
2021/01/10 21:47:07;;;;;;;78.83;41.00;;;;;0.10;101943.00;;;;10444116;28;20209;-78
2021/01/10 21:52:08;;;;;;;79.77;43.27;;;;;0.10;101940.00;;;;10434610;28;20190;-78
2021/01/10 21:57:13;;;;;;;83.47;42.50;;;;;0.20;101946.00;;;;10447191;28;20237;-78
2021/01/10 22:02:15;;;;;;;77.47;42.67;;;;;0.30;101951.00;;;;10450810;28;20217;-78
2021/01/10 22:07:17;;;;;;;89.77;43.37;;;;;0.30;101948.00;;;;10476902;28;20251;-78
2021/01/10 22:12:18;;;;;;;85.20;42.97;;;;;0.40;101937.00;;;;10426350;28;20262;-78
2021/01/10 22:17:19;;;;;;;79.00;41.33;;;;;0.40;101926.00;;;;10461781;28;20229;-78
2021/01/10 22:22:22;;;;;;;80.57;41.43;;;;;0.50;101943.00;;;;10439488;28;20303;-78
2021/01/10 22:27:24;;;;;;;80.80;41.93;;;;;0.50;101960.00;;;;10455950;28;20288;-78
2021/01/10 22:32:25;;;;;;;76.23;40.10;;;;;0.60;101947.00;;;;10446691;28;20201;-78
2021/01/10 22:37:27;;;;;;;79.37;39.47;;;;;0.60;101935.00;;;;10417538;28;20265;-78
2021/01/10 22:42:28;;;;;;;79.90;42.20;;;;;0.60;101935.00;;;;10413842;28;20225;-78
2021/01/10 22:47:30;;;;;;;79.13;40.83;;;;;0.70;101924.00;;;;10446303;28;20701;-78
2021/01/10 22:52:32;;;;;;;75.57;38.93;;;;;0.60;101908.00;;;;10413314;28;20198;-78
2021/01/10 22:57:33;;;;;;;72.33;37.80;;;;;0.70;101921.00;;;;10401692;28;20190;-78
2021/01/10 23:02:35;;;;;;;71.17;35.40;;;;;0.70;101895.00;;;;10444573;28;20205;-78
2021/01/10 23:07:37;;;;;;;74.00;34.73;;;;;0.80;101884.00;;;;10387429;28;20214;-77
2021/01/10 23:12:39;;;;;;;73.53;34.37;;;;;0.80;101883.00;;;;10427104;28;20191;-78
2021/01/10 23:17:42;;;;;;;75.03;37.70;;;;;0.90;101872.00;;;;10428643;28;20201;-78
2021/01/10 23:22:45;;;;;;;76.87;35.17;;;;;1.00;101861.00;;;;10449485;28;20201;-78
2021/01/10 23:27:50;;;;;;;68.70;36.93;;;;;1.00;101853.00;;;;10428282;28;20268;-78
2021/01/10 23:32:53;;;;;;;71.97;35.63;;;;;1.00;101856.00;;;;10429123;28;20206;-78
2021/01/10 23:37:59;;;;;;;70.00;36.93;;;;;1.10;101846.00;;;;10370760;28;20191;-78
2021/01/10 23:43:02;;;;;;;70.03;36.80;;;;;1.10;101862.00;;;;10405534;28;20211;-78
2021/01/10 23:48:04;;;;;;;76.03;38.40;;;;;1.10;101843.00;;;;10428610;28;20214;-78
2021/01/10 23:53:06;;;;;;;63.37;35.53;;;;;1.10;101853.00;;;;10424034;28;20187;-78
2021/01/10 23:58:07;;;;;;;69.90;36.87;;;;;1.10;101849.00;;;;10397621;28;20194;-78
